sensor_id;sensor_type;location;lat;lon;timestamp;P1;durP1;ratioP1;P2;durP2;ratioP2
44440;SDS011;30146;52.268;20.944;2023-04-24T00:00:18;12.60;;;8.40;;
44440;SDS011;30146;52.268;20.944;2023-04-24T00:02:53;14.10;;;9.40;;
44440;SDS011;30146;52.268;20.944;2023-04-24T00:09:15;12.20;;;8.20;;
44440;SDS011;30146;52.268;20.944;2023-04-24T00:11:44;14.30;;;8.70;;
44440;SDS011;30146;52.268;20.944;2023-04-24T00:14:12;14.10;;;9.20;;
44440;SDS011;30146;52.268;20.944;2023-04-24T00:16:40;12.80;;;8.20;;
44440;SDS011;30146;52.268;20.944;2023-04-24T00:19:08;11.30;;;8.10;;
44440;SDS011;30146;52.268;20.944;2023-04-24T00:21:39;13.80;;;8.70;;
44440;SDS011;30146;52.268;20.944;2023-04-24T00:24:08;16.60;;;8.80;;
44440;SDS011;30146;52.268;20.944;2023-04-24T00:26:36;10.80;;;8.30;;
44440;SDS011;30146;52.268;20.944;2023-04-24T00:29:04;13.40;;;8.20;;
44440;SDS011;30146;52.268;20.944;2023-04-24T00:31:32;11.10;;;8.00;;
44440;SDS011;30146;52.268;20.944;2023-04-24T00:34:01;10.80;;;8.10;;
44440;SDS011;30146;52.268;20.944;2023-04-24T00:36:30;15.70;;;9.30;;
44440;SDS011;30146;52.268;20.944;2023-04-24T00:38:59;20.80;;;8.40;;
44440;SDS011;30146;52.268;20.944;2023-04-24T00:41:27;14.90;;;8.80;;
44440;SDS011;30146;52.268;20.944;2023-04-24T00:43:56;14.90;;;9.00;;
44440;SDS011;30146;52.268;20.944;2023-04-24T00:46:24;16.10;;;9.20;;
44440;SDS011;30146;52.268;20.944;2023-04-24T00:48:53;16.90;;;9.00;;
44440;SDS011;30146;52.268;20.944;2023-04-24T00:51:22;14.60;;;8.30;;
44440;SDS011;30146;52.268;20.944;2023-04-24T00:53:51;13.80;;;8.70;;
44440;SDS011;30146;52.268;20.944;2023-04-24T00:56:19;11.90;;;8.30;;
44440;SDS011;30146;52.268;20.944;2023-04-24T00:58:47;12.40;;;8.90;;
44440;SDS011;30146;52.268;20.944;2023-04-24T01:01:16;18.30;;;9.20;;
44440;SDS011;30146;52.268;20.944;2023-04-24T01:03:47;13.30;;;9.00;;
44440;SDS011;30146;52.268;20.944;2023-04-24T01:06:18;14.30;;;8.70;;
44440;SDS011;30146;52.268;20.944;2023-04-24T01:08:47;12.90;;;9.20;;
44440;SDS011;30146;52.268;20.944;2023-04-24T01:11:15;15.80;;;9.10;;
44440;SDS011;30146;52.268;20.944;2023-04-24T01:13:45;13.80;;;8.90;;
44440;SDS011;30146;52.268;20.944;2023-04-24T01:16:14;11.70;;;8.80;;
44440;SDS011;30146;52.268;20.944;2023-04-24T01:18:44;16.40;;;9.10;;
44440;SDS011;30146;52.268;20.944;2023-04-24T01:21:14;13.00;;;9.10;;
44440;SDS011;30146;52.268;20.944;2023-04-24T01:23:43;17.20;;;9.20;;
44440;SDS011;30146;52.268;20.944;2023-04-24T01:26:12;15.80;;;9.10;;
44440;SDS011;30146;52.268;20.944;2023-04-24T01:28:46;12.40;;;8.60;;
44440;SDS011;30146;52.268;20.944;2023-04-24T01:31:17;13.10;;;9.40;;
44440;SDS011;30146;52.268;20.944;2023-04-24T01:33:49;13.80;;;9.10;;
44440;SDS011;30146;52.268;20.944;2023-04-24T01:36:19;14.70;;;8.60;;
44440;SDS011;30146;52.268;20.944;2023-04-24T01:38:50;15.30;;;9.00;;
44440;SDS011;30146;52.268;20.944;2023-04-24T01:44:55;15.00;;;8.80;;
44440;SDS011;30146;52.268;20.944;2023-04-24T01:47:25;18.80;;;9.20;;
44440;SDS011;30146;52.268;20.944;2023-04-24T01:50:04;18.20;;;8.80;;
44440;SDS011;30146;52.268;20.944;2023-04-24T01:52:39;15.80;;;8.40;;
44440;SDS011;30146;52.268;20.944;2023-04-24T01:55:10;17.50;;;8.50;;
44440;SDS011;30146;52.268;20.944;2023-04-24T01:57:38;11.60;;;9.20;;
44440;SDS011;30146;52.268;20.944;2023-04-24T02:00:08;15.20;;;9.50;;
44440;SDS011;30146;52.268;20.944;2023-04-24T02:03:13;14.30;;;9.00;;
44440;SDS011;30146;52.268;20.944;2023-04-24T02:05:44;14.80;;;9.90;;
44440;SDS011;30146;52.268;20.944;2023-04-24T02:08:12;15.50;;;9.70;;
44440;SDS011;30146;52.268;20.944;2023-04-24T02:10:40;19.80;;;8.40;;
44440;SDS011;30146;52.268;20.944;2023-04-24T02:13:08;16.90;;;10.20;;
44440;SDS011;30146;52.268;20.944;2023-04-24T02:15:36;13.40;;;8.80;;
44440;SDS011;30146;52.268;20.944;2023-04-24T02:18:07;13.40;;;9.20;;
44440;SDS011;30146;52.268;20.944;2023-04-24T02:20:35;14.90;;;9.00;;
44440;SDS011;30146;52.268;20.944;2023-04-24T02:23:04;16.40;;;8.60;;
44440;SDS011;30146;52.268;20.944;2023-04-24T02:25:32;20.70;;;9.50;;
44440;SDS011;30146;52.268;20.944;2023-04-24T02:28:00;17.10;;;9.90;;
44440;SDS011;30146;52.268;20.944;2023-04-24T02:30:30;15.40;;;9.20;;
44440;SDS011;30146;52.268;20.944;2023-04-24T02:32:58;14.90;;;9.80;;
44440;SDS011;30146;52.268;20.944;2023-04-24T02:35:27;17.20;;;9.40;;
44440;SDS011;30146;52.268;20.944;2023-04-24T02:37:55;16.20;;;9.30;;
44440;SDS011;30146;52.268;20.944;2023-04-24T02:40:23;14.20;;;9.60;;
44440;SDS011;30146;52.268;20.944;2023-04-24T02:42:51;13.20;;;8.80;;
44440;SDS011;30146;52.268;20.944;2023-04-24T02:45:20;17.20;;;9.60;;
44440;SDS011;30146;52.268;20.944;2023-04-24T02:47:48;18.20;;;10.90;;
44440;SDS011;30146;52.268;20.944;2023-04-24T02:50:16;12.20;;;9.10;;
44440;SDS011;30146;52.268;20.944;2023-04-24T02:52:44;19.90;;;9.40;;
44440;SDS011;30146;52.268;20.944;2023-04-24T02:55:13;15.70;;;10.10;;
44440;SDS011;30146;52.268;20.944;2023-04-24T02:57:41;24.80;;;10.60;;
44440;SDS011;30146;52.268;20.944;2023-04-24T03:00:10;13.90;;;9.60;;
44440;SDS011;30146;52.268;20.944;2023-04-24T03:02:40;14.10;;;9.80;;
44440;SDS011;30146;52.268;20.944;2023-04-24T03:05:08;17.60;;;9.40;;
44440;SDS011;30146;52.268;20.944;2023-04-24T03:07:38;12.30;;;9.40;;
44440;SDS011;30146;52.268;20.944;2023-04-24T03:10:09;17.20;;;10.10;;
44440;SDS011;30146;52.268;20.944;2023-04-24T03:12:37;14.10;;;9.90;;
44440;SDS011;30146;52.268;20.944;2023-04-24T03:15:07;14.30;;;9.20;;
44440;SDS011;30146;52.268;20.944;2023-04-24T03:17:39;17.70;;;10.20;;
44440;SDS011;30146;52.268;20.944;2023-04-24T03:20:08;15.60;;;9.60;;
44440;SDS011;30146;52.268;20.944;2023-04-24T03:22:37;16.40;;;9.30;;
44440;SDS011;30146;52.268;20.944;2023-04-24T03:25:07;22.70;;;9.70;;
44440;SDS011;30146;52.268;20.944;2023-04-24T03:27:37;19.90;;;9.70;;
44440;SDS011;30146;52.268;20.944;2023-04-24T03:30:14;14.40;;;9.90;;
44440;SDS011;30146;52.268;20.944;2023-04-24T03:32:46;14.00;;;9.30;;
44440;SDS011;30146;52.268;20.944;2023-04-24T03:35:17;11.10;;;8.80;;
44440;SDS011;30146;52.268;20.944;2023-04-24T03:37:45;21.90;;;10.10;;
44440;SDS011;30146;52.268;20.944;2023-04-24T03:40:32;14.80;;;10.10;;
44440;SDS011;30146;52.268;20.944;2023-04-24T03:43:01;14.00;;;9.50;;
44440;SDS011;30146;52.268;20.944;2023-04-24T03:45:29;16.90;;;9.50;;
44440;SDS011;30146;52.268;20.944;2023-04-24T03:47:57;13.80;;;9.30;;
44440;SDS011;30146;52.268;20.944;2023-04-24T03:50:26;18.50;;;9.10;;
44440;SDS011;30146;52.268;20.944;2023-04-24T03:52:56;17.10;;;9.80;;
44440;SDS011;30146;52.268;20.944;2023-04-24T03:55:33;17.80;;;9.60;;
44440;SDS011;30146;52.268;20.944;2023-04-24T03:58:02;23.00;;;8.60;;
44440;SDS011;30146;52.268;20.944;2023-04-24T04:00:30;22.40;;;9.40;;
44440;SDS011;30146;52.268;20.944;2023-04-24T04:06:05;20.10;;;9.50;;
44440;SDS011;30146;52.268;20.944;2023-04-24T04:08:33;20.90;;;9.50;;
44440;SDS011;30146;52.268;20.944;2023-04-24T04:11:02;13.10;;;9.40;;
44440;SDS011;30146;52.268;20.944;2023-04-24T04:13:32;17.60;;;8.90;;
44440;SDS011;30146;52.268;20.944;2023-04-24T04:16:00;18.10;;;9.10;;
44440;SDS011;30146;52.268;20.944;2023-04-24T04:18:28;18.90;;;9.40;;
44440;SDS011;30146;52.268;20.944;2023-04-24T04:20:57;22.30;;;10.10;;
44440;SDS011;30146;52.268;20.944;2023-04-24T04:23:28;12.90;;;9.70;;
44440;SDS011;30146;52.268;20.944;2023-04-24T04:26:25;16.50;;;8.50;;
44440;SDS011;30146;52.268;20.944;2023-04-24T04:29:16;16.40;;;9.70;;
44440;SDS011;30146;52.268;20.944;2023-04-24T04:31:46;16.30;;;8.90;;
44440;SDS011;30146;52.268;20.944;2023-04-24T04:37:12;19.00;;;9.80;;
44440;SDS011;30146;52.268;20.944;2023-04-24T04:39:52;22.70;;;8.90;;
44440;SDS011;30146;52.268;20.944;2023-04-24T04:42:24;15.20;;;9.10;;
44440;SDS011;30146;52.268;20.944;2023-04-24T04:44:53;15.20;;;9.10;;
44440;SDS011;30146;52.268;20.944;2023-04-24T04:47:29;24.80;;;8.90;;
44440;SDS011;30146;52.268;20.944;2023-04-24T04:49:59;17.90;;;9.20;;
44440;SDS011;30146;52.268;20.944;2023-04-24T04:52:27;14.80;;;9.10;;
44440;SDS011;30146;52.268;20.944;2023-04-24T04:55:05;16.00;;;9.60;;
44440;SDS011;30146;52.268;20.944;2023-04-24T04:57:58;17.50;;;8.90;;
44440;SDS011;30146;52.268;20.944;2023-04-24T05:00:27;16.70;;;9.10;;
44440;SDS011;30146;52.268;20.944;2023-04-24T05:06:01;14.10;;;8.90;;
44440;SDS011;30146;52.268;20.944;2023-04-24T05:08:31;15.40;;;8.50;;
44440;SDS011;30146;52.268;20.944;2023-04-24T05:10:59;17.10;;;9.00;;
44440;SDS011;30146;52.268;20.944;2023-04-24T05:13:28;20.00;;;9.10;;
44440;SDS011;30146;52.268;20.944;2023-04-24T05:16:11;26.20;;;14.60;;
44440;SDS011;30146;52.268;20.944;2023-04-24T05:18:40;17.20;;;10.20;;
44440;SDS011;30146;52.268;20.944;2023-04-24T05:23:56;19.60;;;9.40;;
44440;SDS011;30146;52.268;20.944;2023-04-24T05:27:14;16.90;;;8.60;;
44440;SDS011;30146;52.268;20.944;2023-04-24T05:29:42;21.10;;;8.90;;
44440;SDS011;30146;52.268;20.944;2023-04-24T05:32:11;12.30;;;8.70;;
44440;SDS011;30146;52.268;20.944;2023-04-24T05:34:41;18.40;;;9.90;;
44440;SDS011;30146;52.268;20.944;2023-04-24T05:37:10;16.70;;;8.40;;
44440;SDS011;30146;52.268;20.944;2023-04-24T05:39:38;13.50;;;8.10;;
44440;SDS011;30146;52.268;20.944;2023-04-24T05:42:08;20.30;;;8.70;;
44440;SDS011;30146;52.268;20.944;2023-04-24T05:44:36;16.80;;;9.40;;
44440;SDS011;30146;52.268;20.944;2023-04-24T05:47:10;15.00;;;8.80;;
44440;SDS011;30146;52.268;20.944;2023-04-24T05:49:39;18.30;;;9.00;;
44440;SDS011;30146;52.268;20.944;2023-04-24T05:52:20;22.30;;;9.60;;
44440;SDS011;30146;52.268;20.944;2023-04-24T05:54:48;15.20;;;8.40;;
44440;SDS011;30146;52.268;20.944;2023-04-24T05:57:20;18.90;;;8.20;;
44440;SDS011;30146;52.268;20.944;2023-04-24T05:59:52;20.20;;;8.60;;
44440;SDS011;30146;52.268;20.944;2023-04-24T06:02:21;24.90;;;13.20;;
44440;SDS011;30146;52.268;20.944;2023-04-24T06:04:50;17.60;;;9.40;;
44440;SDS011;30146;52.268;20.944;2023-04-24T06:07:29;20.50;;;9.20;;
44440;SDS011;30146;52.268;20.944;2023-04-24T06:10:01;17.30;;;8.20;;
44440;SDS011;30146;52.268;20.944;2023-04-24T06:12:46;20.80;;;9.50;;
44440;SDS011;30146;52.268;20.944;2023-04-24T06:15:25;25.10;;;9.60;;
44440;SDS011;30146;52.268;20.944;2023-04-24T06:19:11;21.80;;;9.40;;
44440;SDS011;30146;52.268;20.944;2023-04-24T06:21:39;19.20;;;9.30;;
44440;SDS011;30146;52.268;20.944;2023-04-24T06:24:07;26.10;;;8.50;;
44440;SDS011;30146;52.268;20.944;2023-04-24T06:29:33;27.30;;;8.60;;
44440;SDS011;30146;52.268;20.944;2023-04-24T06:32:03;28.80;;;8.60;;
44440;SDS011;30146;52.268;20.944;2023-04-24T06:34:32;16.90;;;8.10;;
44440;SDS011;30146;52.268;20.944;2023-04-24T06:37:01;17.90;;;8.90;;
44440;SDS011;30146;52.268;20.944;2023-04-24T06:39:29;18.80;;;8.30;;
44440;SDS011;30146;52.268;20.944;2023-04-24T06:41:58;16.40;;;7.50;;
44440;SDS011;30146;52.268;20.944;2023-04-24T06:44:26;24.70;;;8.20;;
44440;SDS011;30146;52.268;20.944;2023-04-24T06:46:55;14.30;;;7.70;;
44440;SDS011;30146;52.268;20.944;2023-04-24T06:49:23;22.70;;;8.70;;
44440;SDS011;30146;52.268;20.944;2023-04-24T06:51:54;21.70;;;7.10;;
44440;SDS011;30146;52.268;20.944;2023-04-24T06:54:23;15.30;;;7.30;;
44440;SDS011;30146;52.268;20.944;2023-04-24T06:56:51;13.90;;;7.30;;
44440;SDS011;30146;52.268;20.944;2023-04-24T06:59:19;17.90;;;7.80;;
44440;SDS011;30146;52.268;20.944;2023-04-24T07:01:47;10.30;;;6.70;;
44440;SDS011;30146;52.268;20.944;2023-04-24T07:04:16;12.40;;;6.40;;
44440;SDS011;30146;52.268;20.944;2023-04-24T07:06:45;13.50;;;6.90;;
44440;SDS011;30146;52.268;20.944;2023-04-24T07:09:15;16.20;;;7.10;;
44440;SDS011;30146;52.268;20.944;2023-04-24T07:11:45;14.40;;;7.40;;
44440;SDS011;30146;52.268;20.944;2023-04-24T07:14:13;12.80;;;6.70;;
44440;SDS011;30146;52.268;20.944;2023-04-24T07:16:42;14.50;;;6.40;;
44440;SDS011;30146;52.268;20.944;2023-04-24T07:19:10;13.10;;;6.70;;
44440;SDS011;30146;52.268;20.944;2023-04-24T07:21:39;16.70;;;6.50;;
44440;SDS011;30146;52.268;20.944;2023-04-24T07:24:07;12.50;;;6.20;;
44440;SDS011;30146;52.268;20.944;2023-04-24T07:26:37;14.30;;;6.50;;
44440;SDS011;30146;52.268;20.944;2023-04-24T07:29:05;10.70;;;6.60;;
44440;SDS011;30146;52.268;20.944;2023-04-24T07:31:34;14.60;;;7.00;;
44440;SDS011;30146;52.268;20.944;2023-04-24T07:34:02;10.50;;;5.90;;
44440;SDS011;30146;52.268;20.944;2023-04-24T07:36:30;11.30;;;5.70;;
44440;SDS011;30146;52.268;20.944;2023-04-24T07:38:59;15.00;;;7.40;;
44440;SDS011;30146;52.268;20.944;2023-04-24T07:41:27;15.20;;;7.80;;
44440;SDS011;30146;52.268;20.944;2023-04-24T07:43:55;14.60;;;8.00;;
44440;SDS011;30146;52.268;20.944;2023-04-24T07:46:23;20.60;;;8.20;;
44440;SDS011;30146;52.268;20.944;2023-04-24T07:48:57;17.40;;;8.20;;
44440;SDS011;30146;52.268;20.944;2023-04-24T07:51:40;28.70;;;20.30;;
44440;SDS011;30146;52.268;20.944;2023-04-24T07:54:09;19.70;;;9.10;;
44440;SDS011;30146;52.268;20.944;2023-04-24T07:56:41;20.00;;;7.40;;
44440;SDS011;30146;52.268;20.944;2023-04-24T07:59:13;13.00;;;7.70;;
44440;SDS011;30146;52.268;20.944;2023-04-24T08:01:41;14.90;;;7.70;;
44440;SDS011;30146;52.268;20.944;2023-04-24T08:04:09;15.10;;;7.40;;
44440;SDS011;30146;52.268;20.944;2023-04-24T08:06:38;28.20;;;11.00;;
44440;SDS011;30146;52.268;20.944;2023-04-24T08:09:06;21.80;;;9.80;;
44440;SDS011;30146;52.268;20.944;2023-04-24T08:11:35;15.20;;;6.70;;
44440;SDS011;30146;52.268;20.944;2023-04-24T08:14:03;20.30;;;7.30;;
44440;SDS011;30146;52.268;20.944;2023-04-24T08:16:32;16.80;;;8.00;;
44440;SDS011;30146;52.268;20.944;2023-04-24T08:19:00;23.50;;;8.10;;
44440;SDS011;30146;52.268;20.944;2023-04-24T08:21:28;17.60;;;7.90;;
44440;SDS011;30146;52.268;20.944;2023-04-24T08:23:56;17.50;;;8.40;;
44440;SDS011;30146;52.268;20.944;2023-04-24T08:26:25;21.40;;;10.80;;
44440;SDS011;30146;52.268;20.944;2023-04-24T08:28:53;15.80;;;8.30;;
44440;SDS011;30146;52.268;20.944;2023-04-24T08:31:21;14.20;;;8.30;;
44440;SDS011;30146;52.268;20.944;2023-04-24T08:33:51;17.20;;;8.30;;
44440;SDS011;30146;52.268;20.944;2023-04-24T08:36:19;19.90;;;7.90;;
44440;SDS011;30146;52.268;20.944;2023-04-24T08:38:47;22.80;;;8.30;;
44440;SDS011;30146;52.268;20.944;2023-04-24T08:41:16;33.60;;;8.70;;
44440;SDS011;30146;52.268;20.944;2023-04-24T08:43:46;25.40;;;9.40;;
44440;SDS011;30146;52.268;20.944;2023-04-24T08:46:14;14.00;;;8.70;;
44440;SDS011;30146;52.268;20.944;2023-04-24T08:48:43;15.90;;;8.70;;
44440;SDS011;30146;52.268;20.944;2023-04-24T08:51:12;25.80;;;9.40;;
44440;SDS011;30146;52.268;20.944;2023-04-24T08:53:40;14.10;;;9.00;;
44440;SDS011;30146;52.268;20.944;2023-04-24T08:56:08;19.10;;;9.00;;
44440;SDS011;30146;52.268;20.944;2023-04-24T08:58:38;15.20;;;8.70;;
44440;SDS011;30146;52.268;20.944;2023-04-24T09:01:07;23.50;;;9.60;;
44440;SDS011;30146;52.268;20.944;2023-04-24T09:03:36;19.10;;;8.40;;
44440;SDS011;30146;52.268;20.944;2023-04-24T09:06:06;12.70;;;8.50;;
44440;SDS011;30146;52.268;20.944;2023-04-24T09:08:37;15.40;;;7.90;;
44440;SDS011;30146;52.268;20.944;2023-04-24T09:11:08;14.00;;;8.10;;
44440;SDS011;30146;52.268;20.944;2023-04-24T09:13:38;19.90;;;7.90;;
44440;SDS011;30146;52.268;20.944;2023-04-24T09:16:08;14.10;;;7.40;;
44440;SDS011;30146;52.268;20.944;2023-04-24T09:18:36;15.30;;;8.00;;
44440;SDS011;30146;52.268;20.944;2023-04-24T09:21:07;14.90;;;8.00;;
44440;SDS011;30146;52.268;20.944;2023-04-24T09:23:36;15.20;;;7.40;;
44440;SDS011;30146;52.268;20.944;2023-04-24T09:26:05;20.50;;;7.30;;
44440;SDS011;30146;52.268;20.944;2023-04-24T09:28:36;16.40;;;7.60;;
44440;SDS011;30146;52.268;20.944;2023-04-24T09:31:06;15.60;;;7.40;;
44440;SDS011;30146;52.268;20.944;2023-04-24T09:33:36;13.70;;;7.70;;
44440;SDS011;30146;52.268;20.944;2023-04-24T09:36:04;13.70;;;6.40;;
44440;SDS011;30146;52.268;20.944;2023-04-24T09:38:42;14.70;;;6.80;;
44440;SDS011;30146;52.268;20.944;2023-04-24T09:41:13;18.90;;;6.50;;
44440;SDS011;30146;52.268;20.944;2023-04-24T09:43:41;17.00;;;5.90;;
44440;SDS011;30146;52.268;20.944;2023-04-24T09:46:10;13.40;;;6.90;;
44440;SDS011;30146;52.268;20.944;2023-04-24T09:48:38;9.00;;;6.30;;
44440;SDS011;30146;52.268;20.944;2023-04-24T09:51:06;11.70;;;5.60;;
44440;SDS011;30146;52.268;20.944;2023-04-24T09:53:37;10.60;;;5.90;;
44440;SDS011;30146;52.268;20.944;2023-04-24T09:56:07;8.50;;;5.30;;
44440;SDS011;30146;52.268;20.944;2023-04-24T09:58:36;10.10;;;5.70;;
44440;SDS011;30146;52.268;20.944;2023-04-24T10:01:05;12.60;;;5.90;;
44440;SDS011;30146;52.268;20.944;2023-04-24T10:03:33;7.30;;;4.70;;
44440;SDS011;30146;52.268;20.944;2023-04-24T10:06:45;11.00;;;5.00;;
44440;SDS011;30146;52.268;20.944;2023-04-24T10:09:15;12.60;;;4.90;;
44440;SDS011;30146;52.268;20.944;2023-04-24T10:11:45;15.50;;;6.30;;
44440;SDS011;30146;52.268;20.944;2023-04-24T10:14:14;13.50;;;6.60;;
44440;SDS011;30146;52.268;20.944;2023-04-24T10:16:44;11.10;;;5.00;;
44440;SDS011;30146;52.268;20.944;2023-04-24T10:19:14;11.20;;;5.40;;
44440;SDS011;30146;52.268;20.944;2023-04-24T10:21:54;14.50;;;5.60;;
44440;SDS011;30146;52.268;20.944;2023-04-24T10:24:24;6.50;;;4.90;;
44440;SDS011;30146;52.268;20.944;2023-04-24T10:26:53;12.70;;;5.30;;
44440;SDS011;30146;52.268;20.944;2023-04-24T10:29:23;14.10;;;5.40;;
44440;SDS011;30146;52.268;20.944;2023-04-24T10:31:53;9.00;;;5.50;;
44440;SDS011;30146;52.268;20.944;2023-04-24T10:34:21;17.40;;;6.40;;
44440;SDS011;30146;52.268;20.944;2023-04-24T10:36:53;13.10;;;6.20;;
44440;SDS011;30146;52.268;20.944;2023-04-24T10:39:24;13.60;;;6.00;;
44440;SDS011;30146;52.268;20.944;2023-04-24T10:42:15;11.90;;;6.50;;
44440;SDS011;30146;52.268;20.944;2023-04-24T10:44:43;11.40;;;5.90;;
44440;SDS011;30146;52.268;20.944;2023-04-24T10:47:15;8.50;;;5.90;;
44440;SDS011;30146;52.268;20.944;2023-04-24T10:49:50;13.90;;;7.00;;
44440;SDS011;30146;52.268;20.944;2023-04-24T10:52:19;12.00;;;6.30;;
44440;SDS011;30146;52.268;20.944;2023-04-24T10:54:48;10.60;;;5.70;;
44440;SDS011;30146;52.268;20.944;2023-04-24T10:57:26;15.80;;;6.30;;
44440;SDS011;30146;52.268;20.944;2023-04-24T11:00:13;14.10;;;6.50;;
44440;SDS011;30146;52.268;20.944;2023-04-24T11:02:47;10.10;;;6.80;;
44440;SDS011;30146;52.268;20.944;2023-04-24T11:05:20;14.90;;;6.80;;
44440;SDS011;30146;52.268;20.944;2023-04-24T11:08:10;20.70;;;7.60;;
44440;SDS011;30146;52.268;20.944;2023-04-24T11:11:13;8.50;;;6.60;;
44440;SDS011;30146;52.268;20.944;2023-04-24T11:14:03;20.80;;;6.50;;
44440;SDS011;30146;52.268;20.944;2023-04-24T11:16:34;13.80;;;6.30;;
44440;SDS011;30146;52.268;20.944;2023-04-24T11:19:20;12.30;;;6.60;;
44440;SDS011;30146;52.268;20.944;2023-04-24T11:26:10;10.00;;;6.70;;
44440;SDS011;30146;52.268;20.944;2023-04-24T11:31:52;6.60;;;5.40;;
44440;SDS011;30146;52.268;20.944;2023-04-24T11:34:20;8.80;;;5.90;;
44440;SDS011;30146;52.268;20.944;2023-04-24T11:36:49;7.40;;;5.70;;
44440;SDS011;30146;52.268;20.944;2023-04-24T11:39:18;18.30;;;6.50;;
44440;SDS011;30146;52.268;20.944;2023-04-24T11:41:46;10.50;;;5.80;;
44440;SDS011;30146;52.268;20.944;2023-04-24T11:47:16;15.40;;;5.50;;
44440;SDS011;30146;52.268;20.944;2023-04-24T11:49:44;12.80;;;5.60;;
44440;SDS011;30146;52.268;20.944;2023-04-24T11:52:15;11.00;;;5.60;;
44440;SDS011;30146;52.268;20.944;2023-04-24T11:54:48;9.10;;;5.90;;
44440;SDS011;30146;52.268;20.944;2023-04-24T11:57:47;8.90;;;5.60;;
44440;SDS011;30146;52.268;20.944;2023-04-24T12:00:19;7.60;;;5.10;;
44440;SDS011;30146;52.268;20.944;2023-04-24T12:02:48;15.80;;;5.90;;
44440;SDS011;30146;52.268;20.944;2023-04-24T12:05:21;9.80;;;5.30;;
44440;SDS011;30146;52.268;20.944;2023-04-24T12:07:53;7.90;;;4.80;;
44440;SDS011;30146;52.268;20.944;2023-04-24T12:10:22;7.70;;;4.80;;
44440;SDS011;30146;52.268;20.944;2023-04-24T12:12:52;10.20;;;5.40;;
44440;SDS011;30146;52.268;20.944;2023-04-24T12:15:25;8.90;;;5.10;;
44440;SDS011;30146;52.268;20.944;2023-04-24T12:17:57;6.80;;;4.70;;
44440;SDS011;30146;52.268;20.944;2023-04-24T12:20:26;10.40;;;5.50;;
44440;SDS011;30146;52.268;20.944;2023-04-24T12:22:56;15.70;;;5.10;;
44440;SDS011;30146;52.268;20.944;2023-04-24T12:25:25;8.00;;;5.60;;
44440;SDS011;30146;52.268;20.944;2023-04-24T12:27:55;7.00;;;5.10;;
44440;SDS011;30146;52.268;20.944;2023-04-24T12:30:39;10.90;;;5.00;;
44440;SDS011;30146;52.268;20.944;2023-04-24T12:33:09;11.70;;;6.40;;
44440;SDS011;30146;52.268;20.944;2023-04-24T12:35:39;8.40;;;5.00;;
44440;SDS011;30146;52.268;20.944;2023-04-24T12:38:29;7.30;;;5.30;;
44440;SDS011;30146;52.268;20.944;2023-04-24T12:41:03;8.20;;;5.70;;
44440;SDS011;30146;52.268;20.944;2023-04-24T12:43:32;11.70;;;5.70;;
44440;SDS011;30146;52.268;20.944;2023-04-24T12:46:04;6.70;;;5.10;;
44440;SDS011;30146;52.268;20.944;2023-04-24T12:48:32;20.10;;;6.20;;
44440;SDS011;30146;52.268;20.944;2023-04-24T12:51:00;11.70;;;4.70;;
44440;SDS011;30146;52.268;20.944;2023-04-24T12:53:29;26.20;;;5.60;;
44440;SDS011;30146;52.268;20.944;2023-04-24T12:55:57;60.60;;;5.40;;
44440;SDS011;30146;52.268;20.944;2023-04-24T12:58:26;30.00;;;4.90;;
44440;SDS011;30146;52.268;20.944;2023-04-24T13:00:55;25.80;;;4.70;;
44440;SDS011;30146;52.268;20.944;2023-04-24T13:03:23;41.20;;;5.30;;
44440;SDS011;30146;52.268;20.944;2023-04-24T13:05:52;7.70;;;3.40;;
44440;SDS011;30146;52.268;20.944;2023-04-24T13:08:21;19.80;;;3.90;;
44440;SDS011;30146;52.268;20.944;2023-04-24T13:10:49;12.00;;;3.80;;
44440;SDS011;30146;52.268;20.944;2023-04-24T13:13:18;16.10;;;3.20;;
44440;SDS011;30146;52.268;20.944;2023-04-24T13:15:50;13.70;;;3.90;;
44440;SDS011;30146;52.268;20.944;2023-04-24T13:18:18;15.00;;;3.70;;
44440;SDS011;30146;52.268;20.944;2023-04-24T13:20:46;12.70;;;3.40;;
44440;SDS011;30146;52.268;20.944;2023-04-24T13:23:14;6.20;;;3.10;;
44440;SDS011;30146;52.268;20.944;2023-04-24T13:25:43;7.10;;;3.30;;
44440;SDS011;30146;52.268;20.944;2023-04-24T13:28:12;8.10;;;3.20;;
44440;SDS011;30146;52.268;20.944;2023-04-24T13:30:40;10.80;;;3.20;;
44440;SDS011;30146;52.268;20.944;2023-04-24T13:33:08;4.90;;;3.00;;
44440;SDS011;30146;52.268;20.944;2023-04-24T13:35:37;5.30;;;3.10;;
44440;SDS011;30146;52.268;20.944;2023-04-24T13:38:05;17.40;;;3.70;;
44440;SDS011;30146;52.268;20.944;2023-04-24T13:40:33;8.50;;;3.20;;
44440;SDS011;30146;52.268;20.944;2023-04-24T13:43:02;11.30;;;3.40;;
44440;SDS011;30146;52.268;20.944;2023-04-24T13:45:30;8.00;;;3.80;;
44440;SDS011;30146;52.268;20.944;2023-04-24T13:47:58;7.40;;;3.70;;
44440;SDS011;30146;52.268;20.944;2023-04-24T13:50:26;6.20;;;3.80;;
44440;SDS011;30146;52.268;20.944;2023-04-24T13:52:56;7.60;;;3.50;;
44440;SDS011;30146;52.268;20.944;2023-04-24T13:55:28;7.60;;;3.10;;
44440;SDS011;30146;52.268;20.944;2023-04-24T13:57:57;9.60;;;4.00;;
44440;SDS011;30146;52.268;20.944;2023-04-24T14:00:25;4.30;;;3.40;;
44440;SDS011;30146;52.268;20.944;2023-04-24T14:02:54;14.40;;;3.70;;
44440;SDS011;30146;52.268;20.944;2023-04-24T14:05:22;11.50;;;3.90;;
44440;SDS011;30146;52.268;20.944;2023-04-24T14:07:51;9.10;;;4.00;;
44440;SDS011;30146;52.268;20.944;2023-04-24T14:10:19;5.70;;;3.20;;
44440;SDS011;30146;52.268;20.944;2023-04-24T14:12:50;4.20;;;2.80;;
44440;SDS011;30146;52.268;20.944;2023-04-24T14:15:19;8.80;;;3.30;;
44440;SDS011;30146;52.268;20.944;2023-04-24T14:17:48;5.70;;;3.90;;
44440;SDS011;30146;52.268;20.944;2023-04-24T14:20:16;8.40;;;3.60;;
44440;SDS011;30146;52.268;20.944;2023-04-24T14:22:45;8.20;;;3.30;;
44440;SDS011;30146;52.268;20.944;2023-04-24T14:25:13;9.20;;;3.90;;
44440;SDS011;30146;52.268;20.944;2023-04-24T14:27:42;9.50;;;3.90;;
44440;SDS011;30146;52.268;20.944;2023-04-24T14:30:11;8.10;;;3.30;;
44440;SDS011;30146;52.268;20.944;2023-04-24T14:32:40;7.90;;;3.60;;
44440;SDS011;30146;52.268;20.944;2023-04-24T14:37:58;9.40;;;6.50;;
44440;SDS011;30146;52.268;20.944;2023-04-24T14:40:27;8.50;;;4.80;;
44440;SDS011;30146;52.268;20.944;2023-04-24T14:43:15;4.00;;;3.60;;
44440;SDS011;30146;52.268;20.944;2023-04-24T14:45:43;12.30;;;3.60;;
44440;SDS011;30146;52.268;20.944;2023-04-24T14:48:12;8.70;;;3.90;;
44440;SDS011;30146;52.268;20.944;2023-04-24T14:50:40;8.90;;;4.10;;
44440;SDS011;30146;52.268;20.944;2023-04-24T14:53:08;6.70;;;4.20;;
44440;SDS011;30146;52.268;20.944;2023-04-24T14:55:37;7.10;;;3.80;;
44440;SDS011;30146;52.268;20.944;2023-04-24T14:58:06;7.90;;;3.70;;
44440;SDS011;30146;52.268;20.944;2023-04-24T15:00:34;7.20;;;4.10;;
44440;SDS011;30146;52.268;20.944;2023-04-24T15:03:03;5.70;;;3.80;;
44440;SDS011;30146;52.268;20.944;2023-04-24T15:05:31;6.30;;;3.90;;
44440;SDS011;30146;52.268;20.944;2023-04-24T15:08:00;17.90;;;4.20;;
44440;SDS011;30146;52.268;20.944;2023-04-24T15:10:29;7.90;;;4.50;;
44440;SDS011;30146;52.268;20.944;2023-04-24T15:12:57;12.70;;;5.90;;
44440;SDS011;30146;52.268;20.944;2023-04-24T15:15:27;13.40;;;6.30;;
44440;SDS011;30146;52.268;20.944;2023-04-24T15:17:55;7.80;;;4.70;;
44440;SDS011;30146;52.268;20.944;2023-04-24T15:20:24;7.10;;;4.60;;